Utida, Utah
Current Conditions -  °F | °C
As of 11:51 PM on Tuesday 21 Oct 2014 (Local Time) from KLGU Reporting Station
Clear Clear  
Wind Chill: 37°   Ceiling: Unl
Heat Index: 37°   Visibility: 10mi
Dew Point: 31°   Wind: 0mph
Humidity: 79%   Direction: NA
Pressure: 30.12"   Gusts: NA
Location:  41.9655°N, 112.049°W
Report Text: KLGU 220551Z AUTO 00000KT 10SM CLR 03/M01 A3012 RMK AO2 SLP188 T00281006 10133 20022 51011 TSNO
Loading
Personal Weather Stations






























Interactive Weather Map
Tropical Storm Tracking
New forecast layout! Learn more

10-Day Weather Forecast

Advertisements
Track Severe Weather on mobile